Westlake, Maryland
Current Conditions -  °F | °C
As of 3:35 AM on Monday 26 Jan 2015 (Local Time) from KGAI Reporting Station
Broken Clouds Broken Clouds  
Wind Chill: 30°   Ceiling: 4000
Heat Index: 36°   Visibility: 6mi
Dew Point: 32°   Wind: 7mph
Humidity: 87%   Direction: 90°E
Pressure: 29.83"   Gusts: NA
Location:  39.0139°N, 77.1601°W
Report Text: KGAI 260835Z 09006KT 6SM BKN040 BKN048 02/00 A2983 RMK AO1
Loading
Personal Weather Stations






























Interactive Weather Map New forecast layout! Learn more

10-Day Weather Forecast

Advertisements
Track Severe Weather on mobile